sensor_id;sensor_type;location;lat;lon;timestamp;P1;durP1;ratioP1;P2;durP2;ratioP2
55913;SDS011;58179;48.776;9.124;2023-05-15T00:01:41;6.07;;;4.22;;
55913;SDS011;58179;48.776;9.124;2023-05-15T00:04:07;5.72;;;3.72;;
55913;SDS011;58179;48.776;9.124;2023-05-15T00:06:33;6.67;;;3.90;;
55913;SDS011;58179;48.776;9.124;2023-05-15T00:08:59;4.93;;;3.78;;
55913;SDS011;58179;48.776;9.124;2023-05-15T00:11:26;7.47;;;3.95;;
55913;SDS011;58179;48.776;9.124;2023-05-15T00:13:52;6.10;;;3.90;;
55913;SDS011;58179;48.776;9.124;2023-05-15T00:16:20;4.88;;;3.95;;
55913;SDS011;58179;48.776;9.124;2023-05-15T00:18:45;4.07;;;3.60;;
55913;SDS011;58179;48.776;9.124;2023-05-15T00:21:11;4.88;;;3.90;;
55913;SDS011;58179;48.776;9.124;2023-05-15T00:23:37;5.10;;;4.00;;
55913;SDS011;58179;48.776;9.124;2023-05-15T00:26:03;5.45;;;4.05;;
55913;SDS011;58179;48.776;9.124;2023-05-15T00:28:29;5.72;;;3.88;;
55913;SDS011;58179;48.776;9.124;2023-05-15T00:30:55;4.40;;;3.70;;
55913;SDS011;58179;48.776;9.124;2023-05-15T00:33:22;6.03;;;4.13;;
55913;SDS011;58179;48.776;9.124;2023-05-15T00:35:48;5.55;;;3.88;;
55913;SDS011;58179;48.776;9.124;2023-05-15T00:38:14;4.38;;;3.60;;
55913;SDS011;58179;48.776;9.124;2023-05-15T00:40:40;5.45;;;3.97;;
55913;SDS011;58179;48.776;9.124;2023-05-15T00:43:08;4.40;;;3.72;;
55913;SDS011;58179;48.776;9.124;2023-05-15T00:45:36;5.05;;;3.83;;
55913;SDS011;58179;48.776;9.124;2023-05-15T00:48:10;3.90;;;3.50;;
55913;SDS011;58179;48.776;9.124;2023-05-15T00:50:38;5.10;;;4.00;;
55913;SDS011;58179;48.776;9.124;2023-05-15T00:53:05;4.40;;;3.80;;
55913;SDS011;58179;48.776;9.124;2023-05-15T00:55:32;6.00;;;4.40;;
55913;SDS011;58179;48.776;9.124;2023-05-15T00:57:59;4.57;;;3.88;;
55913;SDS011;58179;48.776;9.124;2023-05-15T01:00:26;5.80;;;4.25;;
55913;SDS011;58179;48.776;9.124;2023-05-15T01:02:53;5.22;;;3.83;;
55913;SDS011;58179;48.776;9.124;2023-05-15T01:05:19;6.60;;;4.05;;
55913;SDS011;58179;48.776;9.124;2023-05-15T01:07:48;5.65;;;3.88;;
55913;SDS011;58179;48.776;9.124;2023-05-15T01:10:20;4.38;;;3.97;;
55913;SDS011;58179;48.776;9.124;2023-05-15T01:12:46;6.20;;;3.70;;
55913;SDS011;58179;48.776;9.124;2023-05-15T01:15:18;4.97;;;4.03;;
55913;SDS011;58179;48.776;9.124;2023-05-15T01:17:43;4.78;;;4.07;;
55913;SDS011;58179;48.776;9.124;2023-05-15T01:20:10;4.35;;;3.88;;
55913;SDS011;58179;48.776;9.124;2023-05-15T01:22:43;7.45;;;4.80;;
55913;SDS011;58179;48.776;9.124;2023-05-15T01:25:45;5.60;;;4.10;;
55913;SDS011;58179;48.776;9.124;2023-05-15T01:28:56;7.03;;;4.50;;
55913;SDS011;58179;48.776;9.124;2023-05-15T01:31:29;5.80;;;4.10;;
55913;SDS011;58179;48.776;9.124;2023-05-15T01:33:58;4.80;;;4.10;;
55913;SDS011;58179;48.776;9.124;2023-05-15T01:36:32;5.28;;;4.13;;
55913;SDS011;58179;48.776;9.124;2023-05-15T01:39:03;5.00;;;3.92;;
55913;SDS011;58179;48.776;9.124;2023-05-15T01:41:30;5.32;;;4.00;;
55913;SDS011;58179;48.776;9.124;2023-05-15T01:44:03;5.68;;;4.15;;
55913;SDS011;58179;48.776;9.124;2023-05-15T01:46:33;5.93;;;3.92;;
55913;SDS011;58179;48.776;9.124;2023-05-15T01:49:02;4.65;;;3.75;;
55913;SDS011;58179;48.776;9.124;2023-05-15T01:51:29;4.63;;;3.83;;
55913;SDS011;58179;48.776;9.124;2023-05-15T01:53:56;5.30;;;4.20;;
55913;SDS011;58179;48.776;9.124;2023-05-15T01:56:23;5.45;;;3.80;;
55913;SDS011;58179;48.776;9.124;2023-05-15T01:58:51;5.63;;;3.67;;
55913;SDS011;58179;48.776;9.124;2023-05-15T02:01:19;5.13;;;3.60;;
55913;SDS011;58179;48.776;9.124;2023-05-15T02:03:46;6.03;;;4.35;;
55913;SDS011;58179;48.776;9.124;2023-05-15T02:06:14;7.82;;;4.22;;
55913;SDS011;58179;48.776;9.124;2023-05-15T02:08:41;4.15;;;3.65;;
55913;SDS011;58179;48.776;9.124;2023-05-15T02:11:08;6.32;;;4.00;;
55913;SDS011;58179;48.776;9.124;2023-05-15T02:13:34;6.50;;;3.47;;
55913;SDS011;58179;48.776;9.124;2023-05-15T02:16:00;6.35;;;3.78;;
55913;SDS011;58179;48.776;9.124;2023-05-15T02:18:28;4.07;;;3.63;;
55913;SDS011;58179;48.776;9.124;2023-05-15T02:20:54;6.60;;;4.38;;
55913;SDS011;58179;48.776;9.124;2023-05-15T02:23:20;5.50;;;3.78;;
55913;SDS011;58179;48.776;9.124;2023-05-15T02:25:48;5.30;;;3.95;;
55913;SDS011;58179;48.776;9.124;2023-05-15T02:28:27;4.53;;;3.80;;
55913;SDS011;58179;48.776;9.124;2023-05-15T02:30:59;4.72;;;3.88;;
55913;SDS011;58179;48.776;9.124;2023-05-15T02:33:34;4.82;;;3.90;;
55913;SDS011;58179;48.776;9.124;2023-05-15T02:36:07;3.92;;;3.47;;
55913;SDS011;58179;48.776;9.124;2023-05-15T02:38:36;3.85;;;3.45;;
55913;SDS011;58179;48.776;9.124;2023-05-15T02:41:09;6.32;;;3.70;;
55913;SDS011;58179;48.776;9.124;2023-05-15T02:43:36;4.30;;;3.70;;
55913;SDS011;58179;48.776;9.124;2023-05-15T02:46:05;5.13;;;3.75;;
55913;SDS011;58179;48.776;9.124;2023-05-15T02:48:31;6.40;;;4.50;;
55913;SDS011;58179;48.776;9.124;2023-05-15T02:51:02;5.93;;;3.90;;
55913;SDS011;58179;48.776;9.124;2023-05-15T02:53:28;7.45;;;4.25;;
55913;SDS011;58179;48.776;9.124;2023-05-15T02:55:54;6.20;;;4.05;;
55913;SDS011;58179;48.776;9.124;2023-05-15T02:58:20;4.25;;;3.67;;
55913;SDS011;58179;48.776;9.124;2023-05-15T03:00:46;4.30;;;3.70;;
55913;SDS011;58179;48.776;9.124;2023-05-15T03:03:12;6.30;;;4.00;;
55913;SDS011;58179;48.776;9.124;2023-05-15T03:05:39;7.47;;;4.60;;
55913;SDS011;58179;48.776;9.124;2023-05-15T03:08:05;4.55;;;3.90;;
55913;SDS011;58179;48.776;9.124;2023-05-15T03:10:31;4.53;;;3.40;;
55913;SDS011;58179;48.776;9.124;2023-05-15T03:12:57;5.15;;;3.80;;
55913;SDS011;58179;48.776;9.124;2023-05-15T03:15:23;4.43;;;3.78;;
55913;SDS011;58179;48.776;9.124;2023-05-15T03:17:49;5.05;;;3.85;;
55913;SDS011;58179;48.776;9.124;2023-05-15T03:20:15;4.77;;;3.60;;
55913;SDS011;58179;48.776;9.124;2023-05-15T03:22:43;5.82;;;3.67;;
55913;SDS011;58179;48.776;9.124;2023-05-15T03:25:09;5.03;;;4.10;;
55913;SDS011;58179;48.776;9.124;2023-05-15T03:27:35;5.23;;;4.30;;
55913;SDS011;58179;48.776;9.124;2023-05-15T03:30:02;7.07;;;4.90;;
55913;SDS011;58179;48.776;9.124;2023-05-15T03:32:28;6.68;;;4.70;;
55913;SDS011;58179;48.776;9.124;2023-05-15T03:34:54;5.93;;;4.70;;
55913;SDS011;58179;48.776;9.124;2023-05-15T03:37:20;5.18;;;4.10;;
55913;SDS011;58179;48.776;9.124;2023-05-15T03:39:47;5.13;;;4.30;;
55913;SDS011;58179;48.776;9.124;2023-05-15T03:42:13;5.22;;;4.05;;
55913;SDS011;58179;48.776;9.124;2023-05-15T03:44:39;6.15;;;4.40;;
55913;SDS011;58179;48.776;9.124;2023-05-15T03:47:05;6.78;;;4.78;;
55913;SDS011;58179;48.776;9.124;2023-05-15T03:49:31;5.70;;;4.60;;
55913;SDS011;58179;48.776;9.124;2023-05-15T03:51:57;7.38;;;4.90;;
55913;SDS011;58179;48.776;9.124;2023-05-15T03:54:24;5.90;;;4.90;;
55913;SDS011;58179;48.776;9.124;2023-05-15T03:56:51;6.18;;;4.68;;
55913;SDS011;58179;48.776;9.124;2023-05-15T03:59:17;5.18;;;4.68;;
55913;SDS011;58179;48.776;9.124;2023-05-15T04:01:43;6.03;;;4.72;;
55913;SDS011;58179;48.776;9.124;2023-05-15T04:04:09;7.40;;;4.75;;
55913;SDS011;58179;48.776;9.124;2023-05-15T04:06:35;7.25;;;4.95;;
55913;SDS011;58179;48.776;9.124;2023-05-15T04:09:00;6.03;;;5.13;;
55913;SDS011;58179;48.776;9.124;2023-05-15T04:11:26;5.70;;;4.67;;
55913;SDS011;58179;48.776;9.124;2023-05-15T04:13:54;6.70;;;4.70;;
55913;SDS011;58179;48.776;9.124;2023-05-15T04:16:19;5.80;;;4.50;;
55913;SDS011;58179;48.776;9.124;2023-05-15T04:18:45;4.78;;;4.28;;
55913;SDS011;58179;48.776;9.124;2023-05-15T04:21:11;6.90;;;5.40;;
55913;SDS011;58179;48.776;9.124;2023-05-15T04:23:37;9.27;;;5.00;;
55913;SDS011;58179;48.776;9.124;2023-05-15T04:26:05;6.80;;;5.00;;
55913;SDS011;58179;48.776;9.124;2023-05-15T04:28:32;6.07;;;5.00;;
55913;SDS011;58179;48.776;9.124;2023-05-15T04:30:59;6.72;;;4.70;;
55913;SDS011;58179;48.776;9.124;2023-05-15T04:33:25;6.15;;;4.88;;
55913;SDS011;58179;48.776;9.124;2023-05-15T04:35:51;7.40;;;5.00;;
55913;SDS011;58179;48.776;9.124;2023-05-15T04:38:17;5.88;;;4.80;;
55913;SDS011;58179;48.776;9.124;2023-05-15T04:40:43;6.35;;;4.97;;
55913;SDS011;58179;48.776;9.124;2023-05-15T04:43:10;10.45;;;5.90;;
55913;SDS011;58179;48.776;9.124;2023-05-15T04:45:36;5.53;;;4.97;;
55913;SDS011;58179;48.776;9.124;2023-05-15T04:48:03;6.05;;;4.75;;
55913;SDS011;58179;48.776;9.124;2023-05-15T04:50:30;6.47;;;5.25;;
55913;SDS011;58179;48.776;9.124;2023-05-15T04:52:56;6.40;;;5.20;;
55913;SDS011;58179;48.776;9.124;2023-05-15T04:55:22;7.72;;;5.57;;
55913;SDS011;58179;48.776;9.124;2023-05-15T04:57:48;11.23;;;6.45;;
55913;SDS011;58179;48.776;9.124;2023-05-15T05:00:14;7.75;;;6.03;;
55913;SDS011;58179;48.776;9.124;2023-05-15T05:02:40;8.05;;;5.47;;
55913;SDS011;58179;48.776;9.124;2023-05-15T05:05:10;7.85;;;5.88;;
55913;SDS011;58179;48.776;9.124;2023-05-15T05:07:38;7.72;;;5.32;;
55913;SDS011;58179;48.776;9.124;2023-05-15T05:10:05;7.28;;;6.07;;
55913;SDS011;58179;48.776;9.124;2023-05-15T05:12:32;5.57;;;4.78;;
55913;SDS011;58179;48.776;9.124;2023-05-15T05:14:58;7.68;;;5.90;;
55913;SDS011;58179;48.776;9.124;2023-05-15T05:17:24;8.00;;;5.47;;
55913;SDS011;58179;48.776;9.124;2023-05-15T05:19:50;6.63;;;5.23;;
55913;SDS011;58179;48.776;9.124;2023-05-15T05:22:17;9.27;;;6.23;;
55913;SDS011;58179;48.776;9.124;2023-05-15T05:24:43;8.95;;;5.60;;
55913;SDS011;58179;48.776;9.124;2023-05-15T05:27:09;9.75;;;6.13;;
55913;SDS011;58179;48.776;9.124;2023-05-15T05:29:35;8.23;;;5.55;;
55913;SDS011;58179;48.776;9.124;2023-05-15T05:32:01;7.53;;;5.80;;
55913;SDS011;58179;48.776;9.124;2023-05-15T05:34:28;9.48;;;6.80;;
55913;SDS011;58179;48.776;9.124;2023-05-15T05:36:53;7.40;;;5.70;;
55913;SDS011;58179;48.776;9.124;2023-05-15T05:39:21;8.80;;;7.00;;
55913;SDS011;58179;48.776;9.124;2023-05-15T05:41:46;8.30;;;6.53;;
55913;SDS011;58179;48.776;9.124;2023-05-15T05:44:12;13.02;;;7.57;;
55913;SDS011;58179;48.776;9.124;2023-05-15T05:46:38;9.38;;;6.90;;
55913;SDS011;58179;48.776;9.124;2023-05-15T05:49:04;10.85;;;6.90;;
55913;SDS011;58179;48.776;9.124;2023-05-15T05:51:30;9.13;;;7.00;;
55913;SDS011;58179;48.776;9.124;2023-05-15T05:53:56;9.98;;;7.55;;
55913;SDS011;58179;48.776;9.124;2023-05-15T05:56:23;10.68;;;7.03;;
55913;SDS011;58179;48.776;9.124;2023-05-15T05:58:50;10.23;;;7.28;;
55913;SDS011;58179;48.776;9.124;2023-05-15T06:01:16;8.20;;;6.93;;
55913;SDS011;58179;48.776;9.124;2023-05-15T06:03:42;11.20;;;7.27;;
55913;SDS011;58179;48.776;9.124;2023-05-15T06:06:08;10.80;;;7.57;;
55913;SDS011;58179;48.776;9.124;2023-05-15T06:08:34;10.23;;;7.93;;
55913;SDS011;58179;48.776;9.124;2023-05-15T06:11:00;9.10;;;7.10;;
55913;SDS011;58179;48.776;9.124;2023-05-15T06:13:29;7.00;;;5.93;;
55913;SDS011;58179;48.776;9.124;2023-05-15T06:15:55;7.70;;;5.82;;
55913;SDS011;58179;48.776;9.124;2023-05-15T06:18:21;9.35;;;6.45;;
55913;SDS011;58179;48.776;9.124;2023-05-15T06:20:47;9.32;;;7.13;;
55913;SDS011;58179;48.776;9.124;2023-05-15T06:23:13;9.05;;;5.70;;
55913;SDS011;58179;48.776;9.124;2023-05-15T06:25:39;8.27;;;6.22;;
55913;SDS011;58179;48.776;9.124;2023-05-15T06:28:05;9.37;;;6.67;;
55913;SDS011;58179;48.776;9.124;2023-05-15T06:30:33;6.47;;;5.40;;
55913;SDS011;58179;48.776;9.124;2023-05-15T06:33:00;7.70;;;5.40;;
55913;SDS011;58179;48.776;9.124;2023-05-15T06:35:26;7.22;;;4.93;;
55913;SDS011;58179;48.776;9.124;2023-05-15T06:37:52;8.85;;;6.80;;
55913;SDS011;58179;48.776;9.124;2023-05-15T06:40:19;8.18;;;6.53;;
55913;SDS011;58179;48.776;9.124;2023-05-15T06:42:45;11.70;;;6.00;;
55913;SDS011;58179;48.776;9.124;2023-05-15T06:45:11;9.38;;;6.50;;
55913;SDS011;58179;48.776;9.124;2023-05-15T06:47:39;8.45;;;6.65;;
55913;SDS011;58179;48.776;9.124;2023-05-15T06:50:05;7.85;;;5.75;;
55913;SDS011;58179;48.776;9.124;2023-05-15T06:52:32;7.00;;;5.63;;
55913;SDS011;58179;48.776;9.124;2023-05-15T06:54:58;7.50;;;5.80;;
55913;SDS011;58179;48.776;9.124;2023-05-15T06:57:24;9.10;;;4.93;;
55913;SDS011;58179;48.776;9.124;2023-05-15T06:59:50;7.35;;;5.30;;
55913;SDS011;58179;48.776;9.124;2023-05-15T07:02:16;6.10;;;4.75;;
55913;SDS011;58179;48.776;9.124;2023-05-15T07:04:43;6.35;;;5.35;;
55913;SDS011;58179;48.776;9.124;2023-05-15T07:07:09;6.88;;;4.60;;
55913;SDS011;58179;48.776;9.124;2023-05-15T07:09:35;9.43;;;5.18;;
55913;SDS011;58179;48.776;9.124;2023-05-15T07:12:01;7.03;;;4.88;;
55913;SDS011;58179;48.776;9.124;2023-05-15T07:14:29;7.22;;;5.18;;
55913;SDS011;58179;48.776;9.124;2023-05-15T07:16:55;8.77;;;5.28;;
55913;SDS011;58179;48.776;9.124;2023-05-15T07:19:20;5.80;;;4.68;;
55913;SDS011;58179;48.776;9.124;2023-05-15T07:21:48;9.40;;;4.85;;
55913;SDS011;58179;48.776;9.124;2023-05-15T07:24:14;7.33;;;4.83;;
55913;SDS011;58179;48.776;9.124;2023-05-15T07:26:40;5.35;;;4.00;;
55913;SDS011;58179;48.776;9.124;2023-05-15T07:29:06;7.43;;;4.45;;
55913;SDS011;58179;48.776;9.124;2023-05-15T07:31:31;15.45;;;4.88;;
55913;SDS011;58179;48.776;9.124;2023-05-15T07:33:59;5.93;;;4.28;;
55913;SDS011;58179;48.776;9.124;2023-05-15T07:36:25;6.63;;;4.38;;
55913;SDS011;58179;48.776;9.124;2023-05-15T07:38:52;6.80;;;4.17;;
55913;SDS011;58179;48.776;9.124;2023-05-15T07:41:18;4.90;;;4.00;;
55913;SDS011;58179;48.776;9.124;2023-05-15T07:43:44;4.70;;;3.73;;
55913;SDS011;58179;48.776;9.124;2023-05-15T07:46:10;4.80;;;4.27;;
55913;SDS011;58179;48.776;9.124;2023-05-15T07:48:36;5.78;;;3.97;;
55913;SDS011;58179;48.776;9.124;2023-05-15T07:51:02;5.70;;;3.90;;
55913;SDS011;58179;48.776;9.124;2023-05-15T07:53:30;8.38;;;4.75;;
55913;SDS011;58179;48.776;9.124;2023-05-15T07:55:58;6.47;;;4.40;;
55913;SDS011;58179;48.776;9.124;2023-05-15T07:58:26;7.60;;;4.32;;
55913;SDS011;58179;48.776;9.124;2023-05-15T08:00:52;6.83;;;4.10;;
55913;SDS011;58179;48.776;9.124;2023-05-15T08:03:18;5.60;;;3.53;;
55913;SDS011;58179;48.776;9.124;2023-05-15T08:05:44;5.10;;;3.53;;
55913;SDS011;58179;48.776;9.124;2023-05-15T08:08:12;6.20;;;3.70;;
55913;SDS011;58179;48.776;9.124;2023-05-15T08:10:38;5.35;;;3.97;;
55913;SDS011;58179;48.776;9.124;2023-05-15T08:13:06;3.75;;;3.33;;
55913;SDS011;58179;48.776;9.124;2023-05-15T08:15:32;5.40;;;3.40;;
55913;SDS011;58179;48.776;9.124;2023-05-15T08:17:57;6.30;;;3.72;;
55913;SDS011;58179;48.776;9.124;2023-05-15T08:20:23;7.15;;;3.88;;
55913;SDS011;58179;48.776;9.124;2023-05-15T08:22:50;5.55;;;3.92;;
55913;SDS011;58179;48.776;9.124;2023-05-15T08:25:15;7.03;;;3.83;;
55913;SDS011;58179;48.776;9.124;2023-05-15T08:27:42;7.60;;;4.18;;
55913;SDS011;58179;48.776;9.124;2023-05-15T08:30:09;7.30;;;4.13;;
55913;SDS011;58179;48.776;9.124;2023-05-15T08:32:38;5.70;;;3.85;;
55913;SDS011;58179;48.776;9.124;2023-05-15T08:35:06;6.40;;;4.05;;
55913;SDS011;58179;48.776;9.124;2023-05-15T08:37:32;3.63;;;2.78;;
55913;SDS011;58179;48.776;9.124;2023-05-15T08:39:58;5.70;;;3.75;;
55913;SDS011;58179;48.776;9.124;2023-05-15T08:42:27;5.03;;;3.90;;
55913;SDS011;58179;48.776;9.124;2023-05-15T08:44:57;5.47;;;3.70;;
55913;SDS011;58179;48.776;9.124;2023-05-15T08:47:25;4.13;;;3.20;;
55913;SDS011;58179;48.776;9.124;2023-05-15T08:49:59;4.05;;;2.85;;
55913;SDS011;58179;48.776;9.124;2023-05-15T08:52:30;5.30;;;2.80;;
55913;SDS011;58179;48.776;9.124;2023-05-15T08:54:57;3.75;;;3.08;;
55913;SDS011;58179;48.776;9.124;2023-05-15T08:57:25;5.53;;;3.80;;
55913;SDS011;58179;48.776;9.124;2023-05-15T08:59:52;5.50;;;4.17;;
55913;SDS011;58179;48.776;9.124;2023-05-15T09:02:19;4.10;;;3.35;;
55913;SDS011;58179;48.776;9.124;2023-05-15T09:04:48;3.75;;;3.22;;
55913;SDS011;58179;48.776;9.124;2023-05-15T09:07:14;7.38;;;3.45;;
55913;SDS011;58179;48.776;9.124;2023-05-15T09:09:41;4.70;;;2.90;;
55913;SDS011;58179;48.776;9.124;2023-05-15T09:12:08;3.83;;;3.20;;
55913;SDS011;58179;48.776;9.124;2023-05-15T09:14:38;3.50;;;2.60;;
55913;SDS011;58179;48.776;9.124;2023-05-15T09:17:04;5.40;;;3.63;;
55913;SDS011;58179;48.776;9.124;2023-05-15T09:19:30;5.15;;;3.45;;
55913;SDS011;58179;48.776;9.124;2023-05-15T09:22:03;7.35;;;3.28;;
55913;SDS011;58179;48.776;9.124;2023-05-15T09:24:43;4.05;;;3.00;;
55913;SDS011;58179;48.776;9.124;2023-05-15T09:27:12;14.43;;;6.80;;
55913;SDS011;58179;48.776;9.124;2023-05-15T09:29:38;5.72;;;3.35;;
55913;SDS011;58179;48.776;9.124;2023-05-15T09:32:05;4.68;;;3.53;;
55913;SDS011;58179;48.776;9.124;2023-05-15T09:34:33;4.50;;;3.00;;
55913;SDS011;58179;48.776;9.124;2023-05-15T09:37:01;4.53;;;2.97;;
55913;SDS011;58179;48.776;9.124;2023-05-15T09:39:30;5.87;;;3.60;;
55913;SDS011;58179;48.776;9.124;2023-05-15T09:42:04;4.00;;;3.08;;
55913;SDS011;58179;48.776;9.124;2023-05-15T09:44:31;4.30;;;2.73;;
55913;SDS011;58179;48.776;9.124;2023-05-15T09:46:58;4.60;;;2.83;;
55913;SDS011;58179;48.776;9.124;2023-05-15T09:49:25;3.53;;;2.67;;
55913;SDS011;58179;48.776;9.124;2023-05-15T09:51:52;3.47;;;3.00;;
55913;SDS011;58179;48.776;9.124;2023-05-15T09:54:20;3.78;;;2.92;;
55913;SDS011;58179;48.776;9.124;2023-05-15T09:56:48;5.10;;;3.30;;
55913;SDS011;58179;48.776;9.124;2023-05-15T09:59:14;7.82;;;3.20;;
55913;SDS011;58179;48.776;9.124;2023-05-15T10:01:45;3.40;;;2.67;;
55913;SDS011;58179;48.776;9.124;2023-05-15T10:04:15;4.35;;;2.75;;
55913;SDS011;58179;48.776;9.124;2023-05-15T10:06:42;4.90;;;2.90;;
55913;SDS011;58179;48.776;9.124;2023-05-15T10:09:10;6.88;;;3.10;;
55913;SDS011;58179;48.776;9.124;2023-05-15T10:11:39;3.75;;;2.67;;
55913;SDS011;58179;48.776;9.124;2023-05-15T10:14:09;2.55;;;2.28;;
55913;SDS011;58179;48.776;9.124;2023-05-15T10:16:37;6.03;;;2.50;;
55913;SDS011;58179;48.776;9.124;2023-05-15T10:19:05;3.30;;;2.40;;
55913;SDS011;58179;48.776;9.124;2023-05-15T10:21:33;2.97;;;2.40;;
55913;SDS011;58179;48.776;9.124;2023-05-15T10:24:01;3.30;;;2.30;;
55913;SDS011;58179;48.776;9.124;2023-05-15T10:26:29;3.72;;;2.28;;
55913;SDS011;58179;48.776;9.124;2023-05-15T10:29:03;3.38;;;2.13;;
55913;SDS011;58179;48.776;9.124;2023-05-15T10:31:35;5.32;;;2.63;;
55913;SDS011;58179;48.776;9.124;2023-05-15T10:34:01;4.75;;;2.13;;
55913;SDS011;58179;48.776;9.124;2023-05-15T10:36:28;3.53;;;2.10;;
55913;SDS011;58179;48.776;9.124;2023-05-15T10:38:55;4.15;;;2.35;;
55913;SDS011;58179;48.776;9.124;2023-05-15T10:41:23;3.78;;;2.05;;
55913;SDS011;58179;48.776;9.124;2023-05-15T10:43:51;3.60;;;1.93;;
55913;SDS011;58179;48.776;9.124;2023-05-15T10:46:23;4.55;;;2.13;;
55913;SDS011;58179;48.776;9.124;2023-05-15T10:48:50;3.85;;;1.88;;
55913;SDS011;58179;48.776;9.124;2023-05-15T10:51:17;3.58;;;1.90;;
55913;SDS011;58179;48.776;9.124;2023-05-15T10:53:50;2.83;;;2.20;;
55913;SDS011;58179;48.776;9.124;2023-05-15T10:56:17;5.45;;;2.03;;
55913;SDS011;58179;48.776;9.124;2023-05-15T10:58:44;3.08;;;1.80;;
55913;SDS011;58179;48.776;9.124;2023-05-15T11:01:24;3.58;;;2.17;;
55913;SDS011;58179;48.776;9.124;2023-05-15T11:04:03;2.87;;;2.07;;
55913;SDS011;58179;48.776;9.124;2023-05-15T11:06:34;3.38;;;2.20;;
55913;SDS011;58179;48.776;9.124;2023-05-15T11:12:01;3.88;;;1.90;;
55913;SDS011;58179;48.776;9.124;2023-05-15T11:14:29;3.25;;;1.85;;
55913;SDS011;58179;48.776;9.124;2023-05-15T11:17:01;7.13;;;1.92;;
55913;SDS011;58179;48.776;9.124;2023-05-15T11:19:35;4.15;;;1.65;;
55913;SDS011;58179;48.776;9.124;2023-05-15T11:22:19;3.50;;;1.70;;
55913;SDS011;58179;48.776;9.124;2023-05-15T11:24:51;2.38;;;2.00;;
55913;SDS011;58179;48.776;9.124;2023-05-15T11:27:23;3.80;;;1.63;;
55913;SDS011;58179;48.776;9.124;2023-05-15T11:30:06;2.20;;;1.67;;
55913;SDS011;58179;48.776;9.124;2023-05-15T11:32:40;2.38;;;1.63;;
55913;SDS011;58179;48.776;9.124;2023-05-15T11:35:23;2.35;;;1.60;;
55913;SDS011;58179;48.776;9.124;2023-05-15T11:37:52;3.50;;;1.70;;
55913;SDS011;58179;48.776;9.124;2023-05-15T11:40:21;4.38;;;1.70;;
55913;SDS011;58179;48.776;9.124;2023-05-15T11:42:59;4.13;;;1.83;;
55913;SDS011;58179;48.776;9.124;2023-05-15T11:45:29;2.05;;;1.50;;
55913;SDS011;58179;48.776;9.124;2023-05-15T11:48:00;4.25;;;1.90;;
55913;SDS011;58179;48.776;9.124;2023-05-15T11:50:30;4.22;;;1.75;;
55913;SDS011;58179;48.776;9.124;2023-05-15T11:52:57;1.77;;;1.65;;
55913;SDS011;58179;48.776;9.124;2023-05-15T11:55:28;2.03;;;1.50;;
55913;SDS011;58179;48.776;9.124;2023-05-15T11:57:56;2.20;;;1.70;;
55913;SDS011;58179;48.776;9.124;2023-05-15T12:00:22;3.53;;;1.90;;
55913;SDS011;58179;48.776;9.124;2023-05-15T12:02:48;3.30;;;1.80;;
55913;SDS011;58179;48.776;9.124;2023-05-15T12:05:16;7.57;;;2.00;;
55913;SDS011;58179;48.776;9.124;2023-05-15T12:07:42;2.40;;;1.80;;
55913;SDS011;58179;48.776;9.124;2023-05-15T12:10:09;2.80;;;1.80;;
55913;SDS011;58179;48.776;9.124;2023-05-15T12:12:37;3.45;;;1.80;;
55913;SDS011;58179;48.776;9.124;2023-05-15T12:15:07;13.63;;;2.13;;
55913;SDS011;58179;48.776;9.124;2023-05-15T12:17:35;22.85;;;3.13;;
55913;SDS011;58179;48.776;9.124;2023-05-15T12:20:02;3.42;;;1.80;;
55913;SDS011;58179;48.776;9.124;2023-05-15T12:22:35;3.15;;;1.95;;
55913;SDS011;58179;48.776;9.124;2023-05-15T12:25:03;1.90;;;1.67;;
55913;SDS011;58179;48.776;9.124;2023-05-15T12:27:32;2.28;;;1.77;;
55913;SDS011;58179;48.776;9.124;2023-05-15T12:29:59;1.88;;;1.67;;
55913;SDS011;58179;48.776;9.124;2023-05-15T12:32:26;4.75;;;1.70;;
55913;SDS011;58179;48.776;9.124;2023-05-15T12:34:52;2.05;;;1.40;;
55913;SDS011;58179;48.776;9.124;2023-05-15T12:37:20;4.45;;;1.75;;
55913;SDS011;58179;48.776;9.124;2023-05-15T12:39:51;4.28;;;1.88;;
55913;SDS011;58179;48.776;9.124;2023-05-15T12:42:19;3.67;;;1.90;;
55913;SDS011;58179;48.776;9.124;2023-05-15T12:44:48;3.35;;;1.73;;
55913;SDS011;58179;48.776;9.124;2023-05-15T12:47:20;2.03;;;1.73;;
55913;SDS011;58179;48.776;9.124;2023-05-15T12:49:47;3.75;;;2.10;;
55913;SDS011;58179;48.776;9.124;2023-05-15T12:52:13;3.60;;;2.00;;
55913;SDS011;58179;48.776;9.124;2023-05-15T12:54:40;3.17;;;1.80;;
55913;SDS011;58179;48.776;9.124;2023-05-15T12:57:09;3.20;;;1.92;;
55913;SDS011;58179;48.776;9.124;2023-05-15T12:59:36;3.67;;;1.90;;
55913;SDS011;58179;48.776;9.124;2023-05-15T13:02:03;3.90;;;2.08;;
55913;SDS011;58179;48.776;9.124;2023-05-15T13:04:32;4.65;;;2.20;;
55913;SDS011;58179;48.776;9.124;2023-05-15T13:06:58;3.80;;;1.73;;
55913;SDS011;58179;48.776;9.124;2023-05-15T13:09:24;3.78;;;1.80;;
55913;SDS011;58179;48.776;9.124;2023-05-15T13:11:50;2.55;;;1.85;;
55913;SDS011;58179;48.776;9.124;2023-05-15T13:14:21;3.60;;;1.70;;
55913;SDS011;58179;48.776;9.124;2023-05-15T13:16:51;3.88;;;1.83;;
55913;SDS011;58179;48.776;9.124;2023-05-15T13:19:17;3.42;;;1.98;;
55913;SDS011;58179;48.776;9.124;2023-05-15T13:21:43;5.57;;;1.83;;
55913;SDS011;58179;48.776;9.124;2023-05-15T13:24:11;2.53;;;1.75;;
55913;SDS011;58179;48.776;9.124;2023-05-15T13:26:36;3.28;;;1.50;;
55913;SDS011;58179;48.776;9.124;2023-05-15T13:29:02;3.45;;;1.92;;
55913;SDS011;58179;48.776;9.124;2023-05-15T13:31:31;2.40;;;1.90;;
55913;SDS011;58179;48.776;9.124;2023-05-15T13:33:57;3.85;;;2.25;;
55913;SDS011;58179;48.776;9.124;2023-05-15T13:36:23;2.53;;;1.85;;
55913;SDS011;58179;48.776;9.124;2023-05-15T13:38:49;7.45;;;2.75;;
55913;SDS011;58179;48.776;9.124;2023-05-15T13:41:15;4.03;;;2.38;;
55913;SDS011;58179;48.776;9.124;2023-05-15T13:43:41;2.75;;;2.20;;
55913;SDS011;58179;48.776;9.124;2023-05-15T13:46:07;3.20;;;1.98;;
55913;SDS011;58179;48.776;9.124;2023-05-15T13:48:34;3.53;;;1.90;;
55913;SDS011;58179;48.776;9.124;2023-05-15T13:51:01;4.68;;;1.90;;
55913;SDS011;58179;48.776;9.124;2023-05-15T13:53:27;4.43;;;2.10;;
55913;SDS011;58179;48.776;9.124;2023-05-15T13:55:53;5.80;;;2.40;;
55913;SDS011;58179;48.776;9.124;2023-05-15T13:58:19;2.67;;;2.00;;
55913;SDS011;58179;48.776;9.124;2023-05-15T14:00:45;2.95;;;2.05;;
55913;SDS011;58179;48.776;9.124;2023-05-15T14:03:12;3.00;;;2.30;;
55913;SDS011;58179;48.776;9.124;2023-05-15T14:05:39;5.43;;;2.22;;
55913;SDS011;58179;48.776;9.124;2023-05-15T14:08:05;2.30;;;2.00;;
55913;SDS011;58179;48.776;9.124;2023-05-15T14:10:31;3.05;;;2.20;;
55913;SDS011;58179;48.776;9.124;2023-05-15T14:12:57;3.10;;;2.00;;
55913;SDS011;58179;48.776;9.124;2023-05-15T14:15:23;2.37;;;2.17;;
55913;SDS011;58179;48.776;9.124;2023-05-15T14:17:49;3.95;;;2.20;;
55913;SDS011;58179;48.776;9.124;2023-05-15T14:20:15;3.20;;;2.07;;
55913;SDS011;58179;48.776;9.124;2023-05-15T14:22:43;4.07;;;2.30;;
55913;SDS011;58179;48.776;9.124;2023-05-15T14:25:09;3.10;;;2.45;;
55913;SDS011;58179;48.776;9.124;2023-05-15T14:27:35;5.55;;;2.40;;
55913;SDS011;58179;48.776;9.124;2023-05-15T14:30:01;4.47;;;2.05;;
55913;SDS011;58179;48.776;9.124;2023-05-15T14:32:29;4.10;;;2.17;;
55913;SDS011;58179;48.776;9.124;2023-05-15T14:34:55;3.45;;;2.03;;
55913;SDS011;58179;48.776;9.124;2023-05-15T14:37:23;5.78;;;2.40;;
55913;SDS011;58179;48.776;9.124;2023-05-15T14:39:53;2.80;;;2.30;;
55913;SDS011;58179;48.776;9.124;2023-05-15T14:42:19;3.95;;;2.20;;
55913;SDS011;58179;48.776;9.124;2023-05-15T14:44:45;2.87;;;2.13;;
55913;SDS011;58179;48.776;9.124;2023-05-15T14:47:12;3.08;;;1.98;;
55913;SDS011;58179;48.776;9.124;2023-05-15T14:49:39;4.43;;;2.03;;
55913;SDS011;58179;48.776;9.124;2023-05-15T14:52:06;2.58;;;2.10;;
55913;SDS011;58179;48.776;9.124;2023-05-15T14:54:33;4.32;;;2.25;;